Time;durP1;ratioP1;P1;durP2;ratioP2;P2;SDS_P1;SDS_P2;PMS_P1;PMS_P2;Temp;Humidity;BMP_temperature;BMP_pressure;BME280_temperature;BME280_humidity;BME280_pressure;Samples;Min_cycle;Max_cycle;Signal;HPM_P1;HPM_P2
2023/08/17 00:02:04;;;;;;;7.10;5.20;;;;;;;21.39;100.00;101239.30;105999;1260;74608;-92
2023/08/17 00:04:53;;;;;;;11.10;5.20;;;;;;;21.40;100.00;101233.20;106304;1256;69959;-87
2023/08/17 00:07:41;;;;;;;8.10;5.00;;;;;;;21.39;100.00;101236.18;106294;1256;73435;-88
2023/08/17 00:10:29;;;;;;;8.40;5.20;;;;;;;21.36;100.00;101234.40;106404;1257;61259;-92
2023/08/17 00:13:17;;;;;;;7.60;4.90;;;;;;;21.44;100.00;101232.02;106385;1257;61441;-92
2023/08/17 00:16:06;;;;;;;7.20;5.00;;;;;;;21.55;100.00;101232.77;106297;1256;75560;-87
2023/08/17 00:18:54;;;;;;;6.50;4.80;;;;;;;21.51;100.00;101236.83;106010;1257;68776;-92
2023/08/17 00:21:42;;;;;;;7.80;5.20;;;;;;;21.47;100.00;101236.90;106384;1257;73577;-90
2023/08/17 00:24:30;;;;;;;8.30;5.00;;;;;;;21.40;100.00;101235.10;106180;1257;62835;-91
2023/08/17 00:27:18;;;;;;;9.20;4.60;;;;;;;21.35;100.00;101234.61;106089;1260;59169;-87
2023/08/17 00:30:07;;;;;;;6.30;5.00;;;;;;;21.37;100.00;101233.85;105807;1258;75418;-91
2023/08/17 00:32:55;;;;;;;8.00;5.30;;;;;;;21.44;100.00;101234.39;106064;1257;69928;-87
2023/08/17 00:35:45;;;;;;;6.40;5.00;;;;;;;21.51;100.00;101233.65;106311;1257;72000;-87
2023/08/17 00:38:33;;;;;;;7.30;4.90;;;;;;;21.54;100.00;101230.81;106339;1256;62684;-92
2023/08/17 00:41:21;;;;;;;7.80;5.30;;;;;;;21.45;100.00;101234.13;106119;1256;61263;-92
2023/08/17 00:44:10;;;;;;;8.00;4.90;;;;;;;21.43;100.00;101232.85;106397;1257;75613;-92
2023/08/17 00:46:58;;;;;;;8.40;5.50;;;;;;;21.37;100.00;101230.97;106182;1256;69724;-93
2023/08/17 00:49:46;;;;;;;9.30;5.70;;;;;;;21.31;100.00;101234.30;106302;1257;70444;-91
2023/08/17 00:52:34;;;;;;;7.50;4.80;;;;;;;21.24;100.00;101236.23;106127;1257;62027;-92
2023/08/17 00:55:22;;;;;;;11.40;5.60;;;;;;;21.22;100.00;101237.23;106055;1260;61200;-91
2023/08/17 00:58:10;;;;;;;6.10;4.20;;;;;;;21.22;100.00;101238.50;106447;1257;75698;-87
2023/08/17 01:00:59;;;;;;;9.20;5.30;;;;;;;21.24;100.00;101235.86;105926;1262;68651;-87
2023/08/17 01:03:47;;;;;;;7.20;4.80;;;;;;;21.22;100.00;101234.29;106042;1256;72604;-87
2023/08/17 01:06:36;;;;;;;6.70;4.80;;;;;;;21.20;100.00;101237.63;105944;1256;62042;-91
2023/08/17 01:09:26;;;;;;;6.60;4.90;;;;;;;21.17;100.00;101234.58;105943;1259;61443;-87
2023/08/17 01:12:20;;;;;;;7.70;4.70;;;;;;;21.08;100.00;101226.95;106391;1256;76041;-92
2023/08/17 01:15:14;;;;;;;7.40;5.10;;;;;;;21.00;100.00;101225.45;105861;1259;68722;-86
2023/08/17 01:18:15;;;;;;;9.00;4.30;;;;;;;20.97;100.00;101225.55;106205;1260;72720;-87
2023/08/17 01:21:05;;;;;;;7.50;4.80;;;;;;;21.00;100.00;101230.48;106116;1257;61362;-91
2023/08/17 01:23:58;;;;;;;8.10;5.70;;;;;;;21.03;100.00;101228.34;106053;1256;62033;-90
2023/08/17 01:26:46;;;;;;;9.00;5.60;;;;;;;21.08;100.00;101226.49;106167;1260;75701;-91
2023/08/17 01:29:34;;;;;;;8.40;5.00;;;;;;;21.13;100.00;101226.38;106165;1259;68572;-86
2023/08/17 01:32:30;;;;;;;9.20;5.00;;;;;;;21.26;100.00;101225.13;106283;1263;73398;-87
2023/08/17 01:35:37;;;;;;;10.20;5.70;;;;;;;21.28;100.00;101221.30;106177;1256;61235;-87
2023/08/17 01:38:25;;;;;;;7.20;5.40;;;;;;;21.38;100.00;101217.27;105952;1255;61336;-91
2023/08/17 01:41:15;;;;;;;8.10;5.00;;;;;;;21.39;100.00;101219.11;106137;1260;75600;-91
2023/08/17 01:44:03;;;;;;;9.70;6.20;;;;;;;21.43;100.00;101216.33;106205;1256;69851;-92
2023/08/17 01:46:53;;;;;;;8.40;5.30;;;;;;;21.46;100.00;101220.04;106150;1258;73620;-87
2023/08/17 01:49:43;;;;;;;10.10;5.10;;;;;;;21.49;100.00;101216.23;106224;1256;62989;-87
2023/08/17 01:52:31;;;;;;;7.20;5.20;;;;;;;21.47;100.00;101218.33;106067;1258;61221;-86
2023/08/17 01:55:21;;;;;;;10.70;6.20;;;;;;;21.44;100.00;101226.21;106056;1257;75667;-87
2023/08/17 01:58:08;;;;;;;9.30;5.40;;;;;;;21.41;100.00;101220.77;106321;1256;68735;-89
2023/08/17 02:00:57;;;;;;;8.70;5.50;;;;;;;21.40;100.00;101222.96;106066;1258;73636;-87
2023/08/17 02:03:46;;;;;;;9.90;5.20;;;;;;;21.40;100.00;101224.29;105919;1257;62907;-89
2023/08/17 02:06:34;;;;;;;6.00;5.40;;;;;;;21.45;100.00;101224.20;106163;1257;61350;-87
2023/08/17 02:09:22;;;;;;;8.40;5.80;;;;;;;21.47;100.00;101225.13;106011;1256;74209;-87
2023/08/17 02:12:13;;;;;;;6.00;4.60;;;;;;;21.39;100.00;101226.92;106270;1257;69641;-90
2023/08/17 02:15:01;;;;;;;9.40;5.40;;;;;;;21.46;100.00;101229.54;106120;1259;71259;-92
2023/08/17 02:17:49;;;;;;;8.60;5.90;;;;;;;21.45;100.00;101231.90;106036;1256;61507;-91
2023/08/17 02:20:37;;;;;;;6.70;5.30;;;;;;;21.52;100.00;101237.73;106136;1256;61276;-91
2023/08/17 02:23:25;;;;;;;7.20;5.50;;;;;;;21.61;100.00;101237.36;106374;1260;75656;-90
2023/08/17 02:26:14;;;;;;;10.00;5.80;;;;;;;21.60;100.00;101238.86;106316;1256;70094;-88
2023/08/17 02:29:02;;;;;;;10.30;5.50;;;;;;;21.54;100.00;101245.98;106003;1258;73647;-91
2023/08/17 02:31:49;;;;;;;10.40;4.60;;;;;;;21.46;100.00;101247.05;106123;1259;61145;-87
2023/08/17 02:34:38;;;;;;;6.90;4.80;;;;;;;21.42;100.00;101249.16;106068;1257;62355;-87
2023/08/17 02:37:26;;;;;;;7.70;5.00;;;;;;;21.35;100.00;101251.28;105998;1257;180182;-88
2023/08/17 02:40:15;;;;;;;7.40;5.00;;;;;;;21.36;100.00;101250.88;106105;1256;69677;-90
2023/08/17 02:43:03;;;;;;;8.70;5.00;;;;;;;21.34;100.00;101250.01;106394;1260;72552;-91
2023/08/17 02:45:51;;;;;;;8.20;5.20;;;;;;;21.29;100.00;101254.70;105911;1256;62873;-90
2023/08/17 02:48:41;;;;;;;7.30;4.90;;;;;;;21.33;100.00;101254.47;106205;1256;61135;-87
2023/08/17 02:51:29;;;;;;;5.80;4.40;;;;;;;21.36;100.00;101262.39;106004;1259;75493;-87
2023/08/17 02:54:17;;;;;;;6.80;4.70;;;;;;;21.41;100.00;101257.30;106346;1256;69761;-87
2023/08/17 02:57:06;;;;;;;6.40;5.50;;;;;;;21.49;100.00;101259.15;106242;1256;73891;-87
2023/08/17 02:59:54;;;;;;;7.60;5.60;;;;;;;21.54;100.00;101261.02;106528;1256;61191;-91
2023/08/17 03:02:42;;;;;;;6.40;4.70;;;;;;;21.66;100.00;101262.59;106279;1256;61284;-91
2023/08/17 03:05:30;;;;;;;10.50;4.70;;;;;;;21.76;100.00;101257.43;105974;1256;75562;-87
2023/08/17 03:08:19;;;;;;;9.30;5.40;;;;;;;21.81;100.00;101255.51;106277;1257;70142;-91
2023/08/17 03:11:09;;;;;;;9.00;4.80;;;;;;;21.72;100.00;101259.92;106565;1256;73815;-92
2023/08/17 03:14:00;;;;;;;7.40;5.00;;;;;;;21.82;100.00;101260.02;106218;1260;61685;-90
2023/08/17 03:16:48;;;;;;;7.00;4.10;;;;;;;21.93;100.00;101260.84;105966;1256;61279;-90
2023/08/17 03:19:36;;;;;;;8.10;4.80;;;;;;;21.90;100.00;101259.69;106316;1256;75695;-91
2023/08/17 03:22:24;;;;;;;6.80;4.80;;;;;;;21.96;100.00;101259.44;106329;1257;69396;-87
2023/08/17 03:25:15;;;;;;;8.80;5.20;;;;;;;21.86;100.00;101254.23;106303;1260;73525;-91
2023/08/17 03:28:03;;;;;;;8.30;5.20;;;;;;;21.85;100.00;101251.39;106512;1256;61312;-87
2023/08/17 03:30:56;;;;;;;7.90;4.60;;;;;;;21.80;100.00;101250.64;105949;1257;61267;-88
2023/08/17 03:33:43;;;;;;;6.90;4.60;;;;;;;21.77;100.00;101250.16;106505;1256;73207;-91
2023/08/17 03:36:32;;;;;;;7.40;4.90;;;;;;;21.82;100.00;101249.73;106191;1257;69909;-87
2023/08/17 03:39:20;;;;;;;8.50;4.80;;;;;;;21.81;100.00;101245.50;106114;1256;72682;-90
2023/08/17 03:42:08;;;;;;;7.00;4.70;;;;;;;21.83;100.00;101242.41;105940;1256;61162;-91
2023/08/17 03:44:56;;;;;;;8.00;4.70;;;;;;;21.92;100.00;101245.13;106377;1258;61219;-90
2023/08/17 03:47:44;;;;;;;6.20;4.20;;;;;;;22.00;100.00;101247.17;105919;1259;75699;-91
2023/08/17 03:50:32;;;;;;;7.40;5.00;;;;;;;22.02;100.00;101245.60;105917;1260;67452;-90
2023/08/17 03:53:21;;;;;;;9.90;4.50;;;;;;;22.02;100.00;101246.15;106051;1257;72435;-86
2023/08/17 03:56:09;;;;;;;7.20;4.80;;;;;;;22.05;100.00;101250.41;106171;1259;63180;-91
2023/08/17 03:58:58;;;;;;;8.50;5.40;;;;;;;22.15;100.00;101251.27;105957;1257;61216;-86
2023/08/17 04:01:46;;;;;;;8.30;4.90;;;;;;;22.28;100.00;101252.05;106320;1256;74475;-90
2023/08/17 04:04:35;;;;;;;8.10;5.00;;;;;;;22.59;100.00;101251.77;106101;1256;67497;-88
2023/08/17 04:07:23;;;;;;;16.20;5.80;;;;;;;23.06;100.00;101249.95;106052;1257;72987;-90
2023/08/17 04:10:14;;;;;;;10.40;5.40;;;;;;;23.47;100.00;101249.50;106246;1256;63895;-90
2023/08/17 04:13:02;;;;;;;7.90;4.90;;;;;;;23.84;100.00;101249.39;105861;1256;61284;-91
2023/08/17 04:15:52;;;;;;;8.30;5.40;;;;;;;24.10;100.00;101251.55;106240;1256;75546;-90
2023/08/17 04:18:40;;;;;;;8.10;5.20;;;;;;;24.30;100.00;101254.77;106049;1261;68827;-90
2023/08/17 04:21:28;;;;;;;9.30;5.10;;;;;;;24.46;100.00;101257.42;106114;1260;73032;-87
2023/08/17 04:24:17;;;;;;;9.40;5.50;;;;;;;24.59;100.00;101261.88;106003;1258;61551;-90
2023/08/17 04:27:05;;;;;;;8.30;4.90;;;;;;;24.67;100.00;101268.50;106185;1256;61638;-89
2023/08/17 04:29:53;;;;;;;6.60;4.50;;;;;;;24.75;100.00;101268.30;106277;1258;74645;-91
2023/08/17 04:32:42;;;;;;;8.30;5.20;;;;;;;24.74;100.00;101267.09;106186;1257;61271;-88
2023/08/17 04:35:30;;;;;;;4.50;3.80;;;;;;;24.72;100.00;101267.69;105924;1260;74348;-91
2023/08/17 04:38:18;;;;;;;6.30;4.20;;;;;;;24.74;100.00;101269.48;106145;1256;61291;-90
2023/08/17 04:41:07;;;;;;;6.30;3.80;;;;;;;24.76;100.00;101271.63;105927;1256;61382;-86
2023/08/17 04:43:55;;;;;;;7.60;3.90;;;;;;;24.88;100.00;101267.33;105933;1262;75735;-88
2023/08/17 04:46:44;;;;;;;6.20;3.80;;;;;;;25.09;100.00;101267.97;105984;1256;70192;-88
2023/08/17 05:49:15;;;;;;;;;;;;;;;27.73;100.00;101282.41;106108;1258;65510;-90
2023/08/17 05:52:03;;;;;;;8.50;4.00;;;;;;;27.78;100.00;101281.38;106011;1259;61360;-91
2023/08/17 05:54:52;;;;;;;4.70;3.70;;;;;;;27.81;100.00;101280.41;106120;1258;61187;-89
2023/08/17 05:57:40;;;;;;;8.20;3.80;;;;;;;27.74;100.00;101281.46;106017;1259;65905;-90
2023/08/17 06:00:28;;;;;;;6.80;3.40;;;;;;;27.62;100.00;101283.86;106006;1262;61398;-89
2023/08/17 06:03:16;;;;;;;4.80;3.40;;;;;;;27.64;100.00;101280.76;106149;1261;64064;-89
2023/08/17 06:06:07;;;;;;;3.90;3.50;;;;;;;27.89;100.00;101282.70;106016;1259;61133;-90
2023/08/17 06:08:56;;;;;;;5.80;3.70;;;;;;;28.19;100.00;101276.96;105982;1257;61274;-92
2023/08/17 06:11:44;;;;;;;4.10;3.40;;;;;;;28.50;100.00;101281.80;106194;1262;66049;-90
2023/08/17 06:14:33;;;;;;;3.90;3.50;;;;;;;28.75;100.00;101281.86;106062;1259;61387;-91
2023/08/17 06:17:20;;;;;;;5.90;3.80;;;;;;;28.88;100.00;101280.40;106165;1260;64891;-89
2023/08/17 06:20:10;;;;;;;4.60;3.90;;;;;;;29.02;100.00;101278.30;106170;1259;61276;-90
2023/08/17 06:22:58;;;;;;;4.20;3.50;;;;;;;29.24;100.00;101277.84;106076;1259;61318;-91
2023/08/17 06:25:48;;;;;;;7.90;3.60;;;;;;;29.44;100.00;101279.14;105994;1259;66860;-88
2023/08/17 06:28:37;;;;;;;4.30;3.40;;;;;;;29.52;100.00;101279.84;106085;1262;61340;-89
2023/08/17 06:31:27;;;;;;;6.10;3.50;;;;;;;29.47;100.00;101282.21;106113;1259;64992;-89
2023/08/17 06:34:15;;;;;;;5.90;3.50;;;;;;;29.60;100.00;101277.41;106174;1259;61220;-89
2023/08/17 06:37:04;;;;;;;4.20;3.50;;;;;;;29.72;100.00;101274.78;106176;1257;61152;-90
2023/08/17 06:39:52;;;;;;;4.50;3.40;;;;;;;29.82;100.00;101279.63;106084;1258;66744;-90
2023/08/17 06:42:40;;;;;;;4.30;3.70;;;;;;;29.92;100.00;101281.23;106098;1263;61240;-90
2023/08/17 06:45:28;;;;;;;5.00;3.30;;;;;;;29.92;99.81;101280.49;106234;1259;64939;-90
2023/08/17 06:48:17;;;;;;;4.40;3.20;;;;;;;29.94;99.89;101278.24;106239;1262;61379;-91
2023/08/17 06:51:06;;;;;;;5.70;3.30;;;;;;;29.98;99.98;101274.25;106165;1259;59576;-91
2023/08/17 06:53:55;;;;;;;3.90;3.20;;;;;;;29.98;99.98;101273.29;106041;1259;67198;-91
2023/08/17 06:56:43;;;;;;;3.70;2.70;;;;;;;30.01;99.98;101273.95;106460;1262;61177;-89
2023/08/17 06:59:33;;;;;;;3.80;3.00;;;;;;;30.05;97.63;101276.07;106153;1259;65185;-93
2023/08/17 07:02:21;;;;;;;6.40;3.30;;;;;;;30.07;97.89;101278.49;106350;1262;61368;-91
2023/08/17 07:05:10;;;;;;;4.70;3.00;;;;;;;30.06;99.54;101281.48;106011;1260;61247;-89
2023/08/17 07:07:59;;;;;;;5.20;3.10;;;;;;;30.18;95.21;101280.57;106176;1258;66887;-91
2023/08/17 07:10:47;;;;;;;5.30;3.20;;;;;;;30.29;92.76;101278.09;106061;1262;61566;-90
2023/08/17 07:13:35;;;;;;;5.40;3.00;;;;;;;30.42;96.43;101275.73;105930;1259;64944;-89
2023/08/17 07:16:24;;;;;;;4.40;3.00;;;;;;;30.50;94.01;101280.20;106079;1259;61405;-90
2023/08/17 07:19:13;;;;;;;4.40;2.90;;;;;;;30.68;93.98;101275.02;106229;1262;61172;-90
2023/08/17 07:22:01;;;;;;;4.30;3.20;;;;;;;30.75;90.67;101275.13;106207;1259;65878;-90
2023/08/17 07:24:49;;;;;;;5.30;2.90;;;;;;;30.89;90.23;101272.45;106182;1262;61376;-91
2023/08/17 07:27:38;;;;;;;5.10;2.90;;;;;;;31.06;87.12;101270.80;106070;1258;65187;-89
2023/08/17 07:30:25;;;;;;;2.80;2.60;;;;;;;31.21;88.43;101270.98;106108;1259;61304;-89
2023/08/17 07:33:14;;;;;;;4.00;2.90;;;;;;;31.40;88.11;101272.79;106316;1262;61322;-89
2023/08/17 07:36:02;;;;;;;4.70;3.10;;;;;;;31.56;85.43;101268.44;106030;1262;67073;-89
2023/08/17 07:38:50;;;;;;;7.60;3.10;;;;;;;31.69;79.54;101272.14;106175;1257;61294;-90
2023/08/17 07:41:39;;;;;;;4.70;2.90;;;;;;;31.75;79.12;101273.67;106117;1262;64048;-88
2023/08/17 07:44:28;;;;;;;6.50;3.50;;;;;;;31.89;80.34;101270.27;106322;1259;61180;-90
2023/08/17 07:47:17;;;;;;;7.30;3.10;;;;;;;32.08;79.87;101274.44;106136;1259;61065;-90
2023/08/17 07:50:07;;;;;;;6.20;3.30;;;;;;;32.26;77.75;101273.41;106179;1257;66871;-89
2023/08/17 07:52:55;;;;;;;3.80;2.70;;;;;;;32.47;74.65;101271.25;106010;1259;61292;-91
2023/08/17 07:55:44;;;;;;;4.70;3.00;;;;;;;32.60;72.46;101265.88;105939;1259;65031;-92
2023/08/17 07:58:33;;;;;;;4.50;2.60;;;;;;;32.76;71.80;101268.38;105912;1262;61386;-90
2023/08/17 08:01:30;;;;;;;4.60;2.60;;;;;;;32.89;67.89;101268.13;106115;1262;61305;-89
2023/08/17 08:04:18;;;;;;;3.50;2.70;;;;;;;33.10;66.03;101263.80;105893;1262;67064;-92
2023/08/17 08:07:06;;;;;;;6.00;3.00;;;;;;;33.26;65.81;101261.69;106039;1259;62310;-91
2023/08/17 08:09:54;;;;;;;5.30;2.60;;;;;;;33.24;62.41;101260.00;105920;1263;65306;-93
2023/08/17 08:12:42;;;;;;;5.50;2.90;;;;;;;33.22;61.49;101255.97;106079;1259;61254;-90
2023/08/17 08:15:31;;;;;;;2.60;2.10;;;;;;;33.10;60.78;101253.79;106171;1260;61163;-88
2023/08/17 08:18:19;;;;;;;2.70;2.50;;;;;;;33.06;58.20;101253.11;106071;1259;67219;-89
2023/08/17 08:21:07;;;;;;;5.00;2.40;;;;;;;33.09;57.07;101252.44;106113;1258;61218;-90
2023/08/17 08:23:56;;;;;;;3.60;2.40;;;;;;;33.18;60.97;101248.86;106106;1259;65023;-90
2023/08/17 08:26:44;;;;;;;4.10;2.30;;;;;;;33.43;62.89;101249.08;106092;1258;61258;-90
2023/08/17 08:29:33;;;;;;;4.90;2.40;;;;;;;33.60;61.13;101250.41;106195;1260;61282;-90
2023/08/17 08:32:22;;;;;;;3.70;2.50;;;;;;;33.66;58.71;101250.92;106118;1257;66002;-89
2023/08/17 08:35:10;;;;;;;6.20;2.70;;;;;;;33.67;59.38;101252.20;105853;1259;61377;-90
2023/08/17 08:37:58;;;;;;;3.80;2.60;;;;;;;33.72;57.79;101256.05;105940;1259;65028;-89
2023/08/17 08:40:47;;;;;;;4.90;1.90;;;;;;;33.75;57.40;101258.27;105992;1261;61218;-91
2023/08/17 08:43:35;;;;;;;3.20;2.00;;;;;;;33.88;56.08;101251.20;105691;1259;61351;-92
2023/08/17 08:46:24;;;;;;;3.70;2.00;;;;;;;33.86;52.49;101253.88;106157;1262;66068;-91
2023/08/17 08:49:12;;;;;;;4.30;2.10;;;;;;;33.80;54.33;101254.34;106289;1259;61366;-90
2023/08/17 08:52:01;;;;;;;4.90;2.10;;;;;;;33.89;52.17;101258.87;105844;1259;74337;-90
2023/08/17 08:54:50;;;;;;;6.30;1.90;;;;;;;33.91;47.09;101254.95;105844;1259;61358;-89
2023/08/17 08:57:39;;;;;;;1.70;1.60;;;;;;;33.93;45.69;101249.51;106169;1257;61355;-89
2023/08/17 09:00:27;;;;;;;4.00;1.70;;;;;;;33.88;44.88;101253.20;106207;1260;66348;-90
2023/08/17 09:03:17;;;;;;;2.30;1.70;;;;;;;33.87;44.76;101246.33;106078;1259;61387;-90
2023/08/17 09:06:06;;;;;;;4.50;2.10;;;;;;;33.95;44.66;101248.52;106066;1259;64109;-90
2023/08/17 09:08:55;;;;;;;2.80;2.30;;;;;;;34.01;45.43;101247.88;105952;1264;61182;-88
2023/08/17 09:11:43;;;;;;;2.10;1.90;;;;;;;34.07;44.16;101244.58;106073;1262;61165;-88
2023/08/17 09:14:33;;;;;;;3.10;1.90;;;;;;;34.27;45.91;101245.98;105987;1258;67089;-90
2023/08/17 09:17:24;;;;;;;6.30;2.10;;;;;;;34.37;44.34;101246.10;106089;1263;61195;-92
2023/08/17 09:20:38;;;;;;;2.10;1.90;;;;;;;34.40;43.26;101245.34;105810;1259;65004;-91
2023/08/17 09:23:25;;;;;;;3.60;2.30;;;;;;;34.41;43.03;101242.16;105900;1259;61339;-89
2023/08/17 09:26:14;;;;;;;2.50;1.90;;;;;;;34.39;42.78;101238.54;106099;1257;61286;-89
2023/08/17 09:29:05;;;;;;;4.10;2.20;;;;;;;34.32;42.24;101237.09;106219;1262;65807;-91
2023/08/17 09:31:53;;;;;;;3.00;2.10;;;;;;;34.26;42.78;101235.38;105816;1264;61290;-91
2023/08/17 09:34:43;;;;;;;3.10;2.10;;;;;;;34.30;44.27;101235.40;105997;1264;65023;-92
2023/08/17 09:37:37;;;;;;;3.80;2.20;;;;;;;34.37;44.25;101232.65;105912;1259;61292;-89
2023/08/17 09:40:26;;;;;;;2.30;2.10;;;;;;;34.46;45.75;101233.02;106013;1259;61199;-91
2023/08/17 09:43:15;;;;;;;4.90;2.10;;;;;;;34.48;42.58;101232.41;106160;1259;66766;-90
2023/08/17 09:46:03;;;;;;;9.00;2.30;;;;;;;34.58;43.87;101228.09;106068;1265;61446;-91
2023/08/17 09:48:52;;;;;;;3.90;2.30;;;;;;;34.65;45.23;101234.48;105853;1259;65051;-89
2023/08/17 09:51:44;;;;;;;4.90;2.50;;;;;;;34.72;44.54;101236.34;106061;1258;61498;-89
2023/08/17 09:54:33;;;;;;;5.80;2.70;;;;;;;34.70;43.02;101233.13;106144;1257;61301;-90
2023/08/17 09:57:21;;;;;;;7.50;2.30;;;;;;;34.62;42.25;101230.30;105928;1258;67038;-88
2023/08/17 10:00:11;;;;;;;3.00;2.30;;;;;;;34.56;42.50;101227.77;106023;1259;60276;-88
2023/08/17 10:03:02;;;;;;;2.50;2.20;;;;;;;34.54;42.92;101229.83;106491;1257;65102;-90
2023/08/17 10:05:59;;;;;;;4.20;2.50;;;;;;;34.55;42.73;101235.49;106083;1260;61289;-92
2023/08/17 10:08:50;;;;;;;3.80;2.50;;;;;;;34.53;43.61;101233.98;106214;1262;61350;-88
2023/08/17 10:11:38;;;;;;;2.20;2.00;;;;;;;34.57;44.91;101228.56;106297;1262;66891;-90
2023/08/17 10:14:30;;;;;;;6.20;2.60;;;;;;;34.66;44.36;101225.23;106147;1260;61367;-89
2023/08/17 10:17:22;;;;;;;2.90;2.10;;;;;;;34.72;45.48;101224.90;106013;1258;62620;-89
2023/08/17 10:20:10;;;;;;;;;;;;;;;34.91;45.80;101222.00;106002;1262;61266;-89
2023/08/17 10:23:10;;;;;;;3.20;2.30;;;;;;;35.02;41.91;101223.53;106039;1261;61296;-90
2023/08/17 10:26:00;;;;;;;2.80;2.20;;;;;;;34.97;40.73;101225.17;105857;1259;66632;-90
2023/08/17 10:28:49;;;;;;;9.30;2.20;;;;;;;34.96;41.32;101220.55;106017;1259;61407;-89
2023/08/17 10:31:38;;;;;;;3.70;2.30;;;;;;;35.02;42.34;101221.42;105872;1258;65189;-91
2023/08/17 10:34:26;;;;;;;4.80;2.20;;;;;;;35.07;42.08;101221.51;106046;1263;61471;-90
2023/08/17 10:37:14;;;;;;;2.80;2.00;;;;;;;35.02;39.73;101219.65;106144;1262;61307;-89
2023/08/17 10:40:03;;;;;;;5.90;2.40;;;;;;;34.98;39.77;101215.81;106150;1263;66020;-89
2023/08/17 10:42:54;;;;;;;5.80;2.20;;;;;;;34.98;39.99;101216.79;106041;1263;62030;-89
2023/08/17 10:45:47;;;;;;;2.70;2.10;;;;;;;34.96;41.96;101214.80;105996;1263;64933;-89
2023/08/17 10:48:35;;;;;;;3.70;2.10;;;;;;;35.03;40.16;101216.46;106198;1259;61175;-90
2023/08/17 10:51:25;;;;;;;2.70;1.80;;;;;;;35.05;39.60;101214.33;105965;1264;61374;-91
2023/08/17 10:54:14;;;;;;;2.10;1.70;;;;;;;35.15;40.90;101212.83;106005;1262;67012;-90
2023/08/17 10:57:27;;;;;;;2.40;1.70;;;;;;;35.21;41.11;101210.61;106135;1262;61375;-90
2023/08/17 11:00:31;;;;;;;2.70;2.20;;;;;;;35.27;40.62;101208.30;106212;1259;64791;-89
2023/08/17 11:03:20;;;;;;;3.40;1.70;;;;;;;35.31;40.15;101205.88;106231;1260;61318;-91
2023/08/17 11:06:19;;;;;;;7.80;1.90;;;;;;;35.37;39.22;101203.52;106097;1260;61147;-91
2023/08/17 11:09:08;;;;;;;2.30;1.60;;;;;;;35.31;39.02;101204.98;106118;1263;67174;-89
2023/08/17 11:11:57;;;;;;;2.70;1.60;;;;;;;35.21;38.15;101205.90;105870;1259;61308;-88
2023/08/17 11:14:46;;;;;;;4.10;1.90;;;;;;;35.04;38.42;101207.70;105992;1271;63750;-90
2023/08/17 11:17:34;;;;;;;5.70;1.90;;;;;;;34.94;39.00;101207.13;106234;1263;61274;-88
2023/08/17 11:20:24;;;;;;;2.30;1.50;;;;;;;34.96;40.19;101200.85;106109;1262;61227;-91
2023/08/17 11:23:15;;;;;;;5.30;1.80;;;;;;;34.96;39.91;101204.90;106183;1262;67092;-93
2023/08/17 11:26:03;;;;;;;3.30;1.60;;;;;;;35.00;38.08;101201.17;106271;1260;61385;-88
2023/08/17 11:28:52;;;;;;;3.70;2.00;;;;;;;35.09;39.30;101199.27;106258;1259;63969;-88
2023/08/17 11:31:40;;;;;;;2.00;1.50;;;;;;;35.25;39.10;101195.94;105929;1259;61363;-89
2023/08/17 11:34:29;;;;;;;3.80;1.80;;;;;;;35.34;38.61;101195.69;106367;1257;61245;-90
2023/08/17 11:37:18;;;;;;;2.10;1.60;;;;;;;35.33;38.15;101195.95;106075;1262;66976;-91
2023/08/17 11:40:08;;;;;;;2.20;1.60;;;;;;;35.30;38.22;101193.48;106222;1262;61292;-90
2023/08/17 11:43:02;;;;;;;2.00;1.40;;;;;;;35.33;36.72;101186.46;105950;1261;63980;-89
2023/08/17 11:45:51;;;;;;;2.50;1.30;;;;;;;35.40;36.72;101188.70;106001;1264;61257;-93
2023/08/17 11:48:39;;;;;;;2.20;1.70;;;;;;;35.46;37.09;101183.13;105918;1263;61339;-90
2023/08/17 11:51:30;;;;;;;2.50;1.70;;;;;;;35.56;36.53;101187.43;105977;1262;65679;-91
2023/08/17 11:54:19;;;;;;;2.00;1.50;;;;;;;35.75;37.44;101185.30;105959;1258;62586;-91
2023/08/17 11:57:07;;;;;;;4.50;1.90;;;;;;;35.91;36.74;101184.48;105757;1263;65703;-88
2023/08/17 11:59:56;;;;;;;5.10;1.80;;;;;;;36.03;35.48;101174.23;105869;1263;62697;-90
2023/08/17 12:02:47;;;;;;;2.60;1.50;;;;;;;36.21;34.63;101175.29;105985;1261;61270;-89
2023/08/17 12:05:35;;;;;;;3.20;1.50;;;;;;;36.30;33.46;101175.06;106289;1258;67049;-89
2023/08/17 12:08:23;;;;;;;3.60;1.80;;;;;;;36.27;34.21;101178.73;106058;1261;61279;-91
2023/08/17 12:11:11;;;;;;;2.50;1.50;;;;;;;36.28;34.31;101174.30;105838;1266;63895;-87
2023/08/17 12:13:59;;;;;;;2.40;1.60;;;;;;;36.39;35.20;101179.90;106032;1263;61292;-91
2023/08/17 12:16:50;;;;;;;12.80;1.90;;;;;;;36.43;34.65;101179.10;106093;1262;61139;-90
2023/08/17 12:19:39;;;;;;;1.70;1.30;;;;;;;36.24;35.43;101174.39;105757;1264;66807;-91
2023/08/17 12:22:28;;;;;;;6.10;1.60;;;;;;;36.36;36.52;101170.95;105912;1262;61402;-90
2023/08/17 12:25:20;;;;;;;6.40;2.10;;;;;;;36.56;35.56;101172.71;106199;1262;65039;-89
2023/08/17 12:28:12;;;;;;;2.60;1.60;;;;;;;36.88;35.65;101173.33;105761;1261;61234;-90
2023/08/17 12:31:01;;;;;;;;;;;;;;;36.71;34.39;101173.92;106139;1262;61331;-89
2023/08/17 12:33:50;;;;;;;2.50;1.50;;;;;;;36.28;34.75;101173.58;106087;1263;64637;-89
2023/08/17 12:36:38;;;;;;;3.80;1.50;;;;;;;35.95;34.80;101171.66;105887;1262;61376;-89
2023/08/17 12:39:26;;;;;;;2.10;1.50;;;;;;;35.68;35.63;101167.31;105987;1257;63776;-91
2023/08/17 12:42:18;;;;;;;4.30;1.60;;;;;;;35.48;35.92;101165.39;105951;1264;61241;-91
2023/08/17 12:45:06;;;;;;;2.70;1.50;;;;;;;35.28;35.82;101162.35;106219;1262;61331;-89
2023/08/17 12:47:54;;;;;;;3.60;1.80;;;;;;;35.22;37.18;101167.82;106145;1262;65608;-90
2023/08/17 12:50:43;;;;;;;2.40;1.80;;;;;;;35.22;37.97;101165.39;105916;1262;61382;-93
2023/08/17 12:53:32;;;;;;;2.10;1.50;;;;;;;35.27;37.96;101158.56;106089;1262;62865;-88
2023/08/17 12:56:20;;;;;;;3.10;1.60;;;;;;;35.41;37.59;101157.98;106118;1258;61382;-90
2023/08/17 12:59:09;;;;;;;3.10;1.80;;;;;;;35.52;36.92;101155.83;106032;1261;61277;-91
2023/08/17 13:01:57;;;;;;;3.40;1.70;;;;;;;35.77;36.22;101151.95;105824;1259;66097;-92
2023/08/17 13:04:45;;;;;;;2.20;1.50;;;;;;;36.09;35.78;101150.80;105814;1259;61378;-88
2023/08/17 13:07:33;;;;;;;2.30;1.40;;;;;;;36.46;35.66;101144.31;105975;1262;63754;-91
2023/08/17 13:10:21;;;;;;;3.80;1.50;;;;;;;36.81;34.83;101146.77;106299;1257;61261;-91
2023/08/17 13:13:10;;;;;;;3.20;1.50;;;;;;;37.04;34.05;101144.23;105901;1257;61282;-90
2023/08/17 13:15:59;;;;;;;3.10;1.60;;;;;;;37.09;33.84;101142.10;105785;1258;67168;-93
2023/08/17 13:18:47;;;;;;;4.70;1.40;;;;;;;37.18;34.12;101139.81;106140;1260;61244;-90
2023/08/17 13:21:35;;;;;;;3.90;1.60;;;;;;;37.43;33.03;101140.21;106099;1257;65105;-90
2023/08/17 13:24:24;;;;;;;2.30;1.60;;;;;;;37.39;33.06;101138.27;106039;1257;61374;-91
2023/08/17 13:27:12;;;;;;;3.20;1.70;;;;;;;37.47;33.02;101136.02;106044;1262;61161;-94
2023/08/17 13:30:01;;;;;;;4.50;2.10;;;;;;;37.58;32.16;101133.71;105820;1260;67202;-92
2023/08/17 13:32:50;;;;;;;2.00;1.40;;;;;;;37.63;32.96;101133.13;106069;1258;60940;-90
2023/08/17 13:35:39;;;;;;;3.70;1.70;;;;;;;37.87;32.68;101131.09;106137;1261;65123;-89
2023/08/17 13:38:27;;;;;;;4.20;1.50;;;;;;;38.07;32.02;101130.76;105881;1258;61199;-91
2023/08/17 13:41:15;;;;;;;3.10;1.70;;;;;;;38.18;31.82;101129.61;105888;1262;60763;-90
2023/08/17 13:44:04;;;;;;;2.90;1.40;;;;;;;38.26;31.66;101132.67;105970;1263;66921;-90
2023/08/17 13:46:52;;;;;;;3.10;1.70;;;;;;;38.40;31.49;101132.81;106173;1263;61331;-91
2023/08/17 13:49:40;;;;;;;4.00;1.60;;;;;;;38.37;32.05;101137.15;105944;1258;64875;-92
2023/08/17 13:52:29;;;;;;;4.80;1.50;;;;;;;38.07;32.17;101137.84;105846;1264;61333;-90
2023/08/17 13:55:18;;;;;;;3.70;1.80;;;;;;;37.86;32.72;101142.25;105846;1260;61047;-93